createdAt,value
2023-06-14T00:02:27.139Z,98305.41
2023-06-14T00:04:55.216Z,98310.23
2023-06-14T00:07:39.838Z,98307.80
2023-06-14T00:10:08.292Z,98306.24
2023-06-14T00:12:36.525Z,98304.66
2023-06-14T00:15:04.887Z,98302.46
2023-06-14T00:17:32.965Z,98304.58
2023-06-14T00:20:02.456Z,98308.72
2023-06-14T00:22:32.133Z,98309.84
2023-06-14T00:25:02.102Z,98306.15
2023-06-14T00:27:36.445Z,98302.09
2023-06-14T00:30:04.904Z,98299.98
2023-06-14T00:32:34.355Z,98299.30
2023-06-14T00:35:02.386Z,98296.98
2023-06-14T00:37:31.199Z,98293.77
2023-06-14T00:39:59.171Z,98295.77
2023-06-14T00:42:28.532Z,98296.86
2023-06-14T00:44:56.849Z,98292.88
2023-06-14T00:47:26.226Z,98294.81
2023-06-14T00:49:55.211Z,98292.55
2023-06-14T00:52:25.346Z,98295.15
2023-06-14T00:54:53.668Z,98294.48
2023-06-14T00:57:22.413Z,98289.72
2023-06-14T00:59:51.115Z,98289.81
2023-06-14T01:02:20.002Z,98294.30
2023-06-14T01:04:50.796Z,98290.29
2023-06-14T01:07:29.573Z,98284.77
2023-06-14T01:10:03.673Z,98286.09
2023-06-14T01:12:54.293Z,98285.92
2023-06-14T01:15:24.207Z,98284.05
2023-06-14T01:17:55.319Z,98280.37
2023-06-14T01:20:24.351Z,98276.42
2023-06-14T01:22:53.945Z,98273.83
2023-06-14T01:25:24.310Z,98276.27
2023-06-14T01:27:57.582Z,98274.48
2023-06-14T01:30:29.272Z,98278.23
2023-06-14T01:32:59.314Z,98280.32
2023-06-14T01:35:27.529Z,98271.16
2023-06-14T01:37:57.873Z,98273.66
2023-06-14T01:40:27.324Z,98280.16
2023-06-14T01:42:55.405Z,98278.80
2023-06-14T01:45:23.979Z,98281.27
2023-06-14T01:47:53.509Z,98276.81
2023-06-14T01:50:21.998Z,98278.36
2023-06-14T01:52:50.538Z,98284.85
2023-06-14T01:55:19.075Z,98279.41
2023-06-14T01:57:47.360Z,98276.63
2023-06-14T02:00:17.484Z,98276.59
2023-06-14T02:02:47.108Z,98273.64
2023-06-14T02:05:16.798Z,98272.86
2023-06-14T02:07:44.749Z,98272.52
2023-06-14T02:10:12.944Z,98272.57
2023-06-14T02:12:41.482Z,98274.94
2023-06-14T02:15:17.931Z,98274.41
2023-06-14T02:17:50.772Z,98273.95
2023-06-14T02:20:19.222Z,98273.35
2023-06-14T02:22:47.232Z,98270.61
2023-06-14T02:25:15.155Z,98268.44
2023-06-14T02:27:43.105Z,98268.48
2023-06-14T02:30:12.474Z,98270.25
2023-06-14T02:32:41.732Z,98273.19
2023-06-14T02:35:10.186Z,98269.00
2023-06-14T02:37:38.869Z,98270.05
2023-06-14T02:40:07.994Z,98271.88
2023-06-14T02:42:37.089Z,98270.88
2023-06-14T02:45:06.703Z,98272.08
2023-06-14T02:47:34.877Z,98274.66
2023-06-14T02:50:03.856Z,98273.79
2023-06-14T02:52:34.597Z,98273.86
2023-06-14T02:55:02.724Z,98271.45
2023-06-14T02:57:30.829Z,98271.59
2023-06-14T02:59:59.263Z,98272.77
2023-06-14T03:02:27.260Z,98272.04
2023-06-14T03:04:55.428Z,98271.84
2023-06-14T03:07:26.677Z,98271.18
2023-06-14T03:09:54.931Z,98272.50
2023-06-14T03:12:22.970Z,98270.83
2023-06-14T03:14:52.041Z,98273.27
2023-06-14T03:17:21.191Z,98271.60
2023-06-14T03:19:49.157Z,98272.48
2023-06-14T03:22:18.016Z,98271.70
2023-06-14T03:24:46.095Z,98269.46
2023-06-14T03:27:15.727Z,98263.77
2023-06-14T03:29:45.772Z,98268.00
2023-06-14T03:32:13.894Z,98263.37
2023-06-14T03:34:46.392Z,98267.52
2023-06-14T03:37:20.702Z,98269.31
2023-06-14T03:39:49.744Z,98276.17
2023-06-14T03:42:23.324Z,98273.52
2023-06-14T03:44:51.873Z,98274.27
2023-06-14T03:47:21.456Z,98276.34
2023-06-14T03:49:49.602Z,98278.49
2023-06-14T03:52:18.622Z,98278.61
2023-06-14T03:57:21.373Z,98275.82
2023-06-14T03:59:51.017Z,98277.36
2023-06-14T04:02:19.333Z,98280.11
2023-06-14T04:04:47.529Z,98282.10
2023-06-14T04:07:20.594Z,98282.98
2023-06-14T04:09:50.977Z,98280.75
2023-06-14T04:12:19.849Z,98278.55
2023-06-14T04:14:47.829Z,98277.95
2023-06-14T04:17:15.771Z,98280.31
2023-06-14T04:19:46.339Z,98283.47
2023-06-14T04:22:15.016Z,98281.55
2023-06-14T04:24:43.708Z,98276.52
2023-06-14T04:27:12.749Z,98277.55
2023-06-14T04:29:40.967Z,98276.21
2023-06-14T04:32:14.882Z,98279.42
2023-06-14T04:34:43.884Z,98282.11
2023-06-14T04:37:12.996Z,98281.91
2023-06-14T04:39:43.702Z,98281.35
2023-06-14T04:42:12.957Z,98279.58
2023-06-14T04:44:42.627Z,98277.39
2023-06-14T04:47:15.547Z,98278.04
2023-06-14T04:49:44.937Z,98279.45
2023-06-14T04:52:14.281Z,98280.94
2023-06-14T04:54:59.030Z,98283.76
2023-06-14T04:57:27.249Z,98284.67
2023-06-14T04:59:58.945Z,98284.42
2023-06-14T05:02:28.255Z,98284.41
2023-06-14T05:04:58.471Z,98287.84
2023-06-14T05:07:26.561Z,98287.22
2023-06-14T05:09:55.170Z,98290.27
2023-06-14T05:12:24.728Z,98289.87
2023-06-14T05:14:53.034Z,98291.02
2023-06-14T05:17:23.674Z,98292.83
2023-06-14T05:19:51.957Z,98294.95
2023-06-14T05:22:19.979Z,98296.39
2023-06-14T05:24:49.473Z,98293.08
2023-06-14T05:27:17.985Z,98296.44
2023-06-14T05:29:46.125Z,98297.98
2023-06-14T05:32:14.022Z,98300.00
2023-06-14T05:34:41.895Z,98308.10
2023-06-14T05:37:09.823Z,98307.00
2023-06-14T05:39:37.927Z,98308.66
2023-06-14T05:42:09.659Z,98309.98
2023-06-14T05:44:37.758Z,98310.07
2023-06-14T05:47:06.133Z,98309.55
2023-06-14T05:49:34.168Z,98318.59
2023-06-14T05:52:02.093Z,98316.18
2023-06-14T05:54:30.101Z,98319.29
2023-06-14T05:57:02.612Z,98322.08
2023-06-14T05:59:31.791Z,98323.91
2023-06-14T06:01:59.906Z,98321.49
2023-06-14T06:04:28.149Z,98323.33
2023-06-14T06:06:56.255Z,98323.04
2023-06-14T06:09:24.318Z,98322.04
2023-06-14T06:11:54.247Z,98320.52
2023-06-14T06:14:23.049Z,98321.30
2023-06-14T06:16:53.880Z,98323.91
2023-06-14T06:19:21.845Z,98322.63
2023-06-14T06:21:49.891Z,98321.64
2023-06-14T06:24:17.904Z,98324.80
2023-06-14T06:26:46.505Z,98323.38
2023-06-14T06:29:15.178Z,98327.08
2023-06-14T06:31:43.158Z,98329.81
2023-06-14T06:34:11.127Z,98331.48
2023-06-14T06:36:39.077Z,98335.86
2023-06-14T06:39:11.307Z,98341.48
2023-06-14T06:41:41.190Z,98340.71
2023-06-14T06:44:23.414Z,98339.27
2023-06-14T06:46:51.541Z,98337.52
2023-06-14T06:49:19.955Z,98340.59
2023-06-14T06:52:02.053Z,98343.95
2023-06-14T06:54:30.143Z,98342.27
2023-06-14T06:56:58.441Z,98345.48
2023-06-14T06:59:26.433Z,98346.11
2023-06-14T07:01:55.038Z,98344.25
2023-06-14T07:04:23.125Z,98341.55
2023-06-14T07:06:51.182Z,98347.63
2023-06-14T07:09:20.999Z,98353.88
2023-06-14T07:11:49.824Z,98356.42
2023-06-14T07:14:18.580Z,98355.55
2023-06-14T07:16:47.968Z,98357.59
2023-06-14T07:19:17.037Z,98356.44
2023-06-14T07:21:45.003Z,98358.64
2023-06-14T07:24:13.081Z,98360.61
2023-06-14T07:26:41.144Z,98366.11
2023-06-14T07:29:09.080Z,98367.80
2023-06-14T07:31:36.972Z,98373.09
2023-06-14T07:34:05.072Z,98372.95
2023-06-14T07:36:33.002Z,98374.55
2023-06-14T07:39:00.982Z,98372.85
2023-06-14T07:41:28.993Z,98376.80
2023-06-14T07:43:56.936Z,98378.98
2023-06-14T07:46:24.939Z,98380.29
2023-06-14T07:48:53.150Z,98384.89
2023-06-14T07:51:22.941Z,98388.42
2023-06-14T07:53:50.915Z,98389.67
2023-06-14T07:56:18.830Z,98391.23
2023-06-14T07:58:46.905Z,98393.20
2023-06-14T08:01:14.831Z,98395.91
2023-06-14T08:03:42.917Z,98392.17
2023-06-14T08:06:11.026Z,98393.77
2023-06-14T08:08:39.095Z,98395.23
2023-06-14T08:11:07.088Z,98394.31
2023-06-14T08:13:35.069Z,98395.71
2023-06-14T08:16:05.850Z,98388.96
2023-06-14T08:18:33.830Z,98386.27
2023-06-14T08:21:01.809Z,98381.26
2023-06-14T08:23:29.844Z,98384.42
2023-06-14T08:25:58.614Z,98388.98
2023-06-14T08:28:26.499Z,98387.55
2023-06-14T08:30:54.465Z,98385.83
2023-06-14T08:33:22.554Z,98385.34
2023-06-14T08:35:50.832Z,98390.11
2023-06-14T08:38:18.996Z,98387.80
2023-06-14T08:40:52.277Z,98387.44
2023-06-14T08:43:20.629Z,98392.37
2023-06-14T08:45:53.800Z,98395.05
2023-06-14T08:48:26.563Z,98395.31
2023-06-14T08:51:02.975Z,98395.00
2023-06-14T08:53:37.589Z,98401.65
2023-06-14T08:56:06.794Z,98401.39
2023-06-14T08:58:35.427Z,98403.60
2023-06-14T09:01:03.636Z,98408.66
2023-06-14T09:03:32.322Z,98412.35
2023-06-14T09:06:00.530Z,98415.15
2023-06-14T09:08:32.573Z,98416.98
2023-06-14T09:11:03.007Z,98419.89
2023-06-14T09:13:32.112Z,98425.25
2023-06-14T09:16:00.850Z,98421.48
2023-06-14T09:18:40.264Z,98423.52
2023-06-14T09:21:09.362Z,98422.73
2023-06-14T09:23:38.868Z,98422.20
2023-06-14T09:26:11.295Z,98418.20
2023-06-14T09:28:47.055Z,98421.55
2023-06-14T09:31:16.744Z,98419.89
2023-06-14T09:33:50.036Z,98420.88
2023-06-14T09:36:26.736Z,98419.25
2023-06-14T09:38:56.484Z,98422.02
2023-06-14T09:41:36.805Z,98421.32
2023-06-14T09:44:11.121Z,98422.59
2023-06-14T09:46:40.695Z,98423.88
2023-06-14T09:49:09.936Z,98422.23
2023-06-14T09:51:44.979Z,98426.45
2023-06-14T09:54:17.718Z,98427.64
2023-06-14T09:56:47.994Z,98430.80
2023-06-14T09:59:20.252Z,98429.65
2023-06-14T10:01:49.756Z,98431.70
2023-06-14T10:04:23.036Z,98430.54
2023-06-14T10:06:52.455Z,98430.10
2023-06-14T10:09:22.548Z,98433.55
2023-06-14T10:11:51.683Z,98430.75
2023-06-14T10:14:20.834Z,98431.48
2023-06-14T10:16:59.921Z,98433.23
2023-06-14T10:19:39.018Z,98433.84
2023-06-14T10:22:39.302Z,98436.73
2023-06-14T10:25:14.509Z,98433.98
2023-06-14T10:27:46.780Z,98434.64
2023-06-14T10:30:20.542Z,98434.84
2023-06-14T10:33:08.831Z,98427.92
2023-06-14T10:35:37.015Z,98430.10
2023-06-14T10:38:12.857Z,98426.77
2023-06-14T10:40:44.857Z,98425.62
2023-06-14T10:43:24.612Z,98431.88
2023-06-14T10:46:19.811Z,98428.10
2023-06-14T10:48:47.683Z,98428.02
2023-06-14T10:51:22.405Z,98427.23
2023-06-14T10:53:52.334Z,98422.98
2023-06-14T10:56:33.977Z,98420.15
2023-06-14T10:59:02.341Z,98416.59
2023-06-14T11:01:38.614Z,98415.19
2023-06-14T11:04:11.858Z,98422.05
2023-06-14T11:06:50.964Z,98418.89
2023-06-14T11:09:55.515Z,98417.53
2023-06-14T11:12:26.806Z,98417.52
2023-06-14T11:14:54.899Z,98420.03
2023-06-14T11:17:22.941Z,98419.54
2023-06-14T11:19:50.839Z,98419.33
2023-06-14T11:22:18.818Z,98417.23
2023-06-14T11:24:46.694Z,98417.35
2023-06-14T11:27:15.262Z,98410.61
2023-06-14T11:29:51.215Z,98410.08
2023-06-14T11:32:19.227Z,98410.44
2023-06-14T11:34:48.648Z,98410.71
2023-06-14T11:37:17.910Z,98409.24
2023-06-14T11:39:46.606Z,98411.91
2023-06-14T11:42:17.441Z,98410.84
2023-06-14T11:44:48.628Z,98418.52
2023-06-14T11:47:16.940Z,98412.95
2023-06-14T11:49:44.997Z,98419.09
2023-06-14T11:52:13.232Z,98419.01
2023-06-14T11:54:42.195Z,98420.84
2023-06-14T11:57:10.229Z,98417.15
2023-06-14T11:59:41.836Z,98417.14
2023-06-14T12:02:09.754Z,98414.19
2023-06-14T12:04:37.887Z,98411.50
2023-06-14T12:07:21.335Z,98405.08
2023-06-14T12:09:55.543Z,98405.60
2023-06-14T12:12:23.644Z,98400.05
2023-06-14T12:14:51.771Z,98400.05
2023-06-14T12:17:20.368Z,98393.59
2023-06-14T12:19:51.042Z,98386.84
2023-06-14T12:22:19.076Z,98387.75
2023-06-14T12:25:03.191Z,98384.08
2023-06-14T12:27:31.183Z,98384.58
2023-06-14T12:30:04.035Z,98385.96
2023-06-14T12:32:32.636Z,98386.73
2023-06-14T12:35:00.614Z,98387.13
2023-06-14T12:37:28.588Z,98384.61
2023-06-14T12:39:56.531Z,98381.11
2023-06-14T12:42:24.430Z,98381.13
2023-06-14T12:44:52.393Z,98380.27
2023-06-14T12:47:20.337Z,98372.13
2023-06-14T12:49:48.202Z,98369.38
2023-06-14T12:52:16.127Z,98371.13
2023-06-14T12:54:44.045Z,98371.63
2023-06-14T12:57:12.368Z,98371.45
2023-06-14T12:59:40.539Z,98369.97
2023-06-14T13:02:17.102Z,98369.52
2023-06-14T13:04:45.093Z,98367.91
2023-06-14T13:07:13.104Z,98365.82
2023-06-14T13:09:41.078Z,98359.89
2023-06-14T13:12:12.720Z,98358.62
2023-06-14T13:14:42.257Z,98360.88
2023-06-14T13:17:11.199Z,98360.30
2023-06-14T13:19:39.132Z,98362.90
2023-06-14T13:22:07.306Z,98362.16
2023-06-14T13:24:35.759Z,98363.60
2023-06-14T13:27:03.945Z,98366.69
2023-06-14T13:29:32.545Z,98364.30
2023-06-14T13:32:01.195Z,98364.20
2023-06-14T13:34:29.150Z,98368.99
2023-06-14T13:36:57.063Z,98369.56
2023-06-14T13:39:24.940Z,98367.28
2023-06-14T13:41:52.837Z,98366.60
2023-06-14T13:44:22.571Z,98370.66
2023-06-14T13:46:51.140Z,98366.05
2023-06-14T13:49:19.069Z,98365.11
2023-06-14T13:51:47.251Z,98364.53
2023-06-14T13:54:18.558Z,98366.31
2023-06-14T13:56:46.846Z,98365.70
2023-06-14T13:59:14.782Z,98365.16
2023-06-14T14:01:43.073Z,98362.68
2023-06-14T14:04:11.066Z,98361.99
2023-06-14T14:06:39.073Z,98366.77
2023-06-14T14:09:07.281Z,98364.79
2023-06-14T14:11:35.279Z,98361.36
2023-06-14T14:14:03.879Z,98361.94
2023-06-14T14:16:32.237Z,98361.96
2023-06-14T14:19:00.246Z,98363.16
2023-06-14T14:21:28.288Z,98362.03
2023-06-14T14:23:56.376Z,98360.40
2023-06-14T14:26:24.727Z,98361.64
2023-06-14T14:28:53.276Z,98361.73
2023-06-14T14:31:21.258Z,98362.69
2023-06-14T14:33:49.271Z,98362.60
2023-06-14T14:36:17.333Z,98365.08
2023-06-14T14:38:45.461Z,98363.25
2023-06-14T14:41:13.418Z,98363.69
2023-06-14T14:43:41.400Z,98367.00
2023-06-14T14:46:09.481Z,98366.33
2023-06-14T14:48:37.501Z,98361.70
2023-06-14T14:51:06.001Z,98365.25
2023-06-14T14:53:33.928Z,98358.05
2023-06-14T14:56:01.933Z,98350.67
2023-06-14T14:58:30.720Z,98346.91
2023-06-14T15:00:58.714Z,98353.00
2023-06-14T15:03:26.939Z,98352.53
2023-06-14T15:05:54.970Z,98349.66
2023-06-14T15:08:22.916Z,98351.34
2023-06-14T15:10:50.770Z,98353.73
2023-06-14T15:13:19.640Z,98354.88
2023-06-14T15:15:47.605Z,98350.46
2023-06-14T15:18:16.504Z,98353.45
2023-06-14T15:20:45.664Z,98352.61
2023-06-14T15:23:15.876Z,98346.22
2023-06-14T15:25:43.797Z,98347.53
2023-06-14T15:28:11.709Z,98340.79
2023-06-14T15:30:39.690Z,98342.38
2023-06-14T15:33:07.923Z,98339.64
2023-06-14T15:35:37.335Z,98340.36
2023-06-14T15:38:06.578Z,98340.63
2023-06-14T15:40:34.546Z,98344.61
2023-06-14T15:43:02.457Z,98342.98
2023-06-14T15:45:30.828Z,98343.01
2023-06-14T15:47:58.990Z,98344.78
2023-06-14T15:50:28.151Z,98340.98
2023-06-14T15:52:56.109Z,98338.35
2023-06-14T15:55:24.083Z,98337.59
2023-06-14T15:57:52.503Z,98333.73
2023-06-14T16:00:20.844Z,98332.66
2023-06-14T16:02:50.870Z,98332.52
2023-06-14T16:05:19.510Z,98330.21
2023-06-14T16:07:47.561Z,98329.05
2023-06-14T16:10:15.889Z,98327.98
2023-06-14T16:12:44.076Z,98331.70
2023-06-14T16:15:12.085Z,98332.27
2023-06-14T16:17:40.062Z,98338.04
2023-06-14T16:20:09.628Z,98334.94
2023-06-14T16:22:37.989Z,98342.44
2023-06-14T16:25:07.916Z,98340.88
2023-06-14T16:27:36.359Z,98338.65
2023-06-14T16:30:04.872Z,98343.48
2023-06-14T16:32:33.565Z,98345.63
2023-06-14T16:35:01.930Z,98344.36
2023-06-14T16:37:29.839Z,98352.36
2023-06-14T16:39:57.878Z,98354.20
2023-06-14T16:42:25.998Z,98356.24
2023-06-14T16:44:53.921Z,98357.06
2023-06-14T16:47:22.473Z,98364.48
2023-06-14T16:49:50.597Z,98365.98
2023-06-14T16:52:18.628Z,98368.89
2023-06-14T16:54:46.748Z,98371.03
2023-06-14T16:57:14.747Z,98376.44
2023-06-14T16:59:42.661Z,98379.65
2023-06-14T17:02:10.681Z,98381.65
2023-06-14T17:04:38.829Z,98385.86
2023-06-14T17:07:07.188Z,98385.23
2023-06-14T17:09:35.114Z,98389.44
2023-06-14T17:12:03.398Z,98389.08
2023-06-14T17:14:31.771Z,98392.34
2023-06-14T17:16:59.770Z,98391.34
2023-06-14T17:19:28.636Z,98395.80
2023-06-14T17:21:56.710Z,98391.35
2023-06-14T17:24:26.775Z,98393.40
2023-06-14T17:26:58.024Z,98396.29
2023-06-14T17:29:27.874Z,98398.14
2023-06-14T17:31:56.083Z,98392.66
2023-06-14T17:34:24.128Z,98405.58
2023-06-14T17:36:52.348Z,98403.80
2023-06-14T17:39:20.899Z,98407.77
2023-06-14T17:41:49.014Z,98410.73
2023-06-14T17:44:17.585Z,98414.05
2023-06-14T17:46:46.170Z,98418.68
2023-06-14T17:49:14.457Z,98419.05
2023-06-14T17:51:42.413Z,98416.20
2023-06-14T17:54:10.483Z,98418.41
2023-06-14T17:56:38.990Z,98420.16
2023-06-14T17:59:08.649Z,98421.77
2023-06-14T18:01:36.792Z,98423.67
2023-06-14T18:04:05.171Z,98424.96
2023-06-14T18:06:33.215Z,98425.60
2023-06-14T18:09:01.198Z,98424.05
2023-06-14T18:11:31.863Z,98426.48
2023-06-14T18:14:00.757Z,98423.89
2023-06-14T18:16:29.507Z,98427.85
2023-06-14T18:18:57.688Z,98427.28
2023-06-14T18:21:25.572Z,98424.75
2023-06-14T18:23:54.671Z,98426.99
2023-06-14T18:26:27.442Z,98426.02
2023-06-14T18:28:58.146Z,98429.69
2023-06-14T18:31:26.303Z,98425.84
2023-06-14T18:33:54.913Z,98425.25
2023-06-14T18:36:23.045Z,98427.63
2023-06-14T18:38:51.286Z,98425.27
2023-06-14T18:41:19.554Z,98427.31
2023-06-14T18:43:48.520Z,98426.15
2023-06-14T18:46:16.700Z,98429.70
2023-06-14T18:48:45.123Z,98428.80
2023-06-14T18:51:13.130Z,98429.98
2023-06-14T18:53:42.557Z,98435.45
2023-06-14T18:56:11.370Z,98434.08
2023-06-14T18:58:39.341Z,98441.48
2023-06-14T19:01:08.697Z,98442.25
2023-06-14T19:03:36.907Z,98444.42
2023-06-14T19:06:04.965Z,98444.15
2023-06-14T19:08:33.229Z,98443.94
2023-06-14T19:11:01.245Z,98444.99
2023-06-14T19:13:30.135Z,98444.60
2023-06-14T19:15:58.188Z,98446.85
2023-06-14T19:18:26.999Z,98445.95
2023-06-14T19:20:55.157Z,98447.45
2023-06-14T19:23:25.533Z,98450.30
2023-06-14T19:25:54.415Z,98447.09
2023-06-14T19:28:25.385Z,98447.13
2023-06-14T19:30:55.140Z,98450.99
2023-06-14T19:33:23.343Z,98452.64
2023-06-14T19:35:51.274Z,98455.58
2023-06-14T19:38:19.805Z,98452.39
2023-06-14T19:40:48.057Z,98454.45
2023-06-14T19:43:16.105Z,98454.70
2023-06-14T19:45:44.908Z,98454.28
2023-06-14T19:48:20.683Z,98454.55
2023-06-14T19:50:51.705Z,98449.71
2023-06-14T19:53:21.432Z,98451.21
2023-06-14T19:55:49.840Z,98448.11
2023-06-14T19:58:18.980Z,98448.08
2023-06-14T20:00:47.026Z,98454.27
2023-06-14T20:03:15.125Z,98456.41
2023-06-14T20:05:43.686Z,98458.80
2023-06-14T20:08:11.723Z,98459.71
2023-06-14T20:10:39.804Z,98461.80
2023-06-14T20:13:08.884Z,98465.36
2023-06-14T20:15:37.010Z,98467.26
2023-06-14T20:18:05.074Z,98465.42
2023-06-14T20:20:33.189Z,98461.34
2023-06-14T20:23:03.390Z,98458.39
2023-06-14T20:25:33.002Z,98454.19
2023-06-14T20:28:01.056Z,98454.16
2023-06-14T20:30:29.006Z,98456.88
2023-06-14T20:32:57.034Z,98454.29
2023-06-14T20:35:25.071Z,98447.86
2023-06-14T20:37:53.041Z,98446.14
2023-06-14T20:40:24.823Z,98447.39
2023-06-14T20:42:58.454Z,98446.58
2023-06-14T20:45:27.280Z,98444.96
2023-06-14T20:47:55.620Z,98446.23
2023-06-14T20:50:24.128Z,98442.25
2023-06-14T20:52:52.085Z,98445.42
2023-06-14T20:55:20.379Z,98446.05
2023-06-14T20:57:49.284Z,98444.42
2023-06-14T21:00:18.932Z,98442.09
2023-06-14T21:02:47.236Z,98443.79
2023-06-14T21:05:15.208Z,98444.95
2023-06-14T21:07:43.869Z,98448.10
2023-06-14T21:10:12.655Z,98455.45
2023-06-14T21:12:41.467Z,98458.20
2023-06-14T21:15:09.808Z,98459.19
2023-06-14T21:17:38.087Z,98458.98
2023-06-14T21:20:08.164Z,98461.02
2023-06-14T21:22:37.680Z,98462.92
2023-06-14T21:25:05.993Z,98460.11
2023-06-14T21:27:33.888Z,98461.64
2023-06-14T21:30:01.847Z,98463.59
2023-06-14T21:32:30.945Z,98465.86
2023-06-14T21:34:59.240Z,98465.87
2023-06-14T21:37:27.412Z,98465.02
2023-06-14T21:39:55.379Z,98468.83
2023-06-14T21:42:23.247Z,98472.95
2023-06-14T21:44:52.541Z,98472.45
2023-06-14T21:47:20.433Z,98474.19
2023-06-14T21:49:48.819Z,98473.69
2023-06-14T21:52:17.746Z,98469.77
2023-06-14T21:54:45.640Z,98471.26
2023-06-14T21:57:13.552Z,98471.32
2023-06-14T21:59:41.713Z,98471.35
2023-06-14T22:02:09.566Z,98471.15
2023-06-14T22:04:37.502Z,98473.44
2023-06-14T22:07:07.906Z,98468.80
2023-06-14T22:09:36.307Z,98468.91
2023-06-14T22:12:04.603Z,98472.52
2023-06-14T22:14:34.994Z,98473.88
2023-06-14T22:17:03.868Z,98471.74
2023-06-14T22:19:31.952Z,98470.41
2023-06-14T22:22:02.123Z,98473.79
2023-06-14T22:24:30.218Z,98468.02
2023-06-14T22:27:00.664Z,98466.84
2023-06-14T22:29:29.884Z,98465.27
2023-06-14T22:31:57.976Z,98457.60
2023-06-14T22:34:26.013Z,98454.94
2023-06-14T22:36:55.552Z,98452.27
2023-06-14T22:39:23.703Z,98452.05
2023-06-14T22:41:51.770Z,98449.06
2023-06-14T22:44:19.861Z,98449.63
2023-06-14T22:46:47.696Z,98448.89
2023-06-14T22:49:18.189Z,98447.73
2023-06-14T22:51:46.504Z,98445.36
2023-06-14T22:54:14.470Z,98441.33
2023-06-14T22:56:42.961Z,98442.77
2023-06-14T22:59:10.886Z,98443.36
2023-06-14T23:01:38.941Z,98442.25
2023-06-14T23:04:06.915Z,98442.63
2023-06-14T23:06:34.922Z,98445.23
2023-06-14T23:09:05.541Z,98443.05
2023-06-14T23:11:34.629Z,98439.18
2023-06-14T23:14:03.296Z,98437.63
2023-06-14T23:16:32.498Z,98439.01
2023-06-14T23:19:00.449Z,98439.27
2023-06-14T23:21:28.833Z,98435.92
2023-06-14T23:23:57.432Z,98437.36
2023-06-14T23:26:29.527Z,98433.09
2023-06-14T23:28:58.341Z,98430.44
2023-06-14T23:31:26.673Z,98435.31
2023-06-14T23:33:57.149Z,98434.10
2023-06-14T23:36:32.029Z,98434.41
2023-06-14T23:39:07.374Z,98433.22
2023-06-14T23:41:36.277Z,98431.17
2023-06-14T23:44:06.229Z,98431.48
2023-06-14T23:46:34.166Z,98439.34
2023-06-14T23:49:02.287Z,98440.67
2023-06-14T23:51:32.166Z,98439.23
2023-06-14T23:54:01.157Z,98437.73
2023-06-14T23:56:32.672Z,98439.23
2023-06-14T23:59:00.588Z,98442.34
